Time;durP1;ratioP1;P1;durP2;ratioP2;P2;SDS_P1;SDS_P2;PMS_P1;PMS_P2;Temp;Humidity;BMP_temperature;BMP_pressure;BME280_temperature;BME280_humidity;BME280_pressure;Samples;Min_cycle;Max_cycle;Signal;HPM_P1;HPM_P2
2022/09/08 00:01:10;;;;;;;3.45;1.05;;;19.10;99.90;;;;;;4133817;28;20196;-90
2022/09/08 00:03:14;;;;;;;6.97;1.38;;;19.20;99.90;;;;;;4133624;28;20201;-91
2022/09/08 00:05:19;;;;;;;9.82;1.20;;;19.20;99.90;;;;;;4133508;28;20526;-91
2022/09/08 00:07:21;;;;;;;6.47;1.27;;;19.20;99.90;;;;;;4133452;28;20180;-90
2022/09/08 00:09:22;;;;;;;3.80;1.10;;;19.10;99.90;;;;;;4133881;28;20173;-91
2022/09/08 00:11:28;;;;;;;6.93;1.65;;;19.00;99.90;;;;;;4149780;28;20262;-91
2022/09/08 00:13:32;;;;;;;7.97;1.13;;;19.10;99.90;;;;;;4156570;28;20187;-90
2022/09/08 00:15:35;;;;;;;8.70;1.25;;;19.10;99.90;;;;;;4139027;28;20665;-90
2022/09/08 00:17:37;;;;;;;3.78;1.30;;;19.10;99.90;;;;;;4133785;28;20213;-91
2022/09/08 00:19:37;;;;;;;5.75;1.00;;;19.00;99.90;;;;;;4133227;28;20662;-91
2022/09/08 00:21:38;;;;;;;4.30;1.17;;;18.90;99.90;;;;;;4148861;28;20193;-93
2022/09/08 00:23:39;;;;;;;4.70;1.20;;;18.90;99.90;;;;;;4133563;28;20177;-91
2022/09/08 00:25:40;;;;;;;4.72;0.98;;;18.90;99.90;;;;;;4133112;28;20224;-90
2022/09/08 00:27:41;;;;;;;2.97;0.90;;;18.90;99.90;;;;;;4149302;28;20173;-90
2022/09/08 00:29:41;;;;;;;4.85;1.23;;;18.90;99.90;;;;;;4149344;28;20541;-91
2022/09/08 00:31:42;;;;;;;7.22;1.00;;;18.90;99.90;;;;;;4133143;28;20181;-91
2022/09/08 00:33:44;;;;;;;7.47;1.63;;;18.90;99.90;;;;;;4149338;28;20172;-91
2022/09/08 00:35:45;;;;;;;7.45;1.40;;;18.90;99.90;;;;;;4133034;28;20162;-91
2022/09/08 00:37:46;;;;;;;4.70;1.08;;;18.90;99.90;;;;;;4133199;28;20228;-91
2022/09/08 00:39:48;;;;;;;6.43;1.10;;;19.00;99.90;;;;;;4132772;28;20626;-90
2022/09/08 00:41:50;;;;;;;8.93;1.33;;;19.00;99.90;;;;;;4132773;28;20182;-91
2022/09/08 00:43:59;;;;;;;6.65;1.70;;;19.10;99.90;;;;;;4132983;28;20173;-90
2022/09/08 00:46:16;;;;;;;4.85;1.10;;;19.10;99.90;;;;;;4132887;28;20184;-91
2022/09/08 00:48:17;;;;;;;7.28;1.33;;;19.20;99.90;;;;;;4132987;28;20217;-91
2022/09/08 00:50:23;;;;;;;5.72;1.05;;;19.10;99.90;;;;;;4149131;28;20200;-91
2022/09/08 00:52:28;;;;;;;7.10;1.30;;;19.00;99.90;;;;;;4132900;28;20178;-92
2022/09/08 00:54:29;;;;;;;10.13;1.63;;;19.10;99.90;;;;;;4132633;28;20580;-92
2022/09/08 00:56:30;;;;;;;3.75;1.30;;;19.00;99.90;;;;;;4132520;28;20197;-91
2022/09/08 00:58:34;;;;;;;8.07;1.40;;;19.00;99.90;;;;;;4132883;28;20165;-92
2022/09/08 01:00:37;;;;;;;5.78;1.30;;;18.90;99.90;;;;;;4132697;28;20221;-92
2022/09/08 01:02:38;;;;;;;5.45;1.20;;;19.00;99.90;;;;;;4148871;28;20173;-92
2022/09/08 01:04:39;;;;;;;5.63;1.30;;;18.90;99.90;;;;;;4149036;28;20179;-92
2022/09/08 01:14:11;;;;;;;5.50;1.30;;;18.70;99.90;;;;;;4148570;28;20596;-90
2022/09/08 01:16:12;;;;;;;8.55;1.60;;;18.60;99.90;;;;;;4148703;28;20579;-90
2022/09/08 01:18:12;;;;;;;5.30;1.30;;;18.70;99.90;;;;;;4132378;28;20197;-92
2022/09/08 01:20:16;;;;;;;5.80;1.63;;;18.70;99.90;;;;;;4132050;28;20223;-92
2022/09/08 01:22:23;;;;;;;4.32;1.13;;;18.70;99.90;;;;;;4132345;28;20181;-91
2022/09/08 01:24:48;;;;;;;6.60;1.40;;;18.70;99.90;;;;;;4132347;28;20220;-91
2022/09/08 01:27:12;;;;;;;7.53;1.50;;;18.70;99.90;;;;;;4132270;28;20181;-92
2022/09/08 01:29:15;;;;;;;9.55;1.90;;;18.60;99.90;;;;;;4132844;28;20317;-92
2022/09/08 01:31:18;;;;;;;6.35;1.40;;;18.50;99.90;;;;;;4132401;28;20238;-90
2022/09/08 01:33:20;;;;;;;6.22;1.48;;;18.40;99.90;;;;;;4131692;28;20176;-90
2022/09/08 01:35:31;;;;;;;6.03;1.67;;;18.40;99.90;;;;;;4132204;28;20181;-92
2022/09/08 01:37:32;;;;;;;3.65;1.60;;;18.40;99.90;;;;;;4132358;28;20177;-91
2022/09/08 01:39:32;;;;;;;9.52;1.73;;;18.50;99.90;;;;;;4148426;28;20208;-90
2022/09/08 01:41:33;;;;;;;6.13;1.60;;;18.60;99.90;;;;;;4132152;28;20247;-91
2022/09/08 01:43:34;;;;;;;5.80;1.90;;;18.70;99.90;;;;;;4148491;28;20179;-91
2022/09/08 01:45:36;;;;;;;5.22;1.77;;;18.60;99.90;;;;;;4132181;28;20169;-91
2022/09/08 01:47:37;;;;;;;7.85;1.90;;;18.50;99.90;;;;;;4132145;28;20181;-91
2022/09/08 01:49:37;;;;;;;8.77;1.88;;;18.40;99.90;;;;;;4132256;28;20581;-91
2022/09/08 01:51:38;;;;;;;4.00;1.60;;;18.40;99.90;;;;;;4132116;28;20189;-90
2022/09/08 01:53:39;;;;;;;5.10;1.73;;;18.40;99.90;;;;;;4148154;28;20188;-90
2022/09/08 01:55:39;;;;;;;5.78;1.80;;;18.30;99.90;;;;;;4148273;28;20654;-92
2022/09/08 01:57:40;;;;;;;7.00;1.85;;;18.40;99.90;;;;;;4132047;28;20620;-90
2022/09/08 01:59:41;;;;;;;6.65;1.80;;;18.40;99.90;;;;;;4132303;28;20265;-91
2022/09/08 02:01:42;;;;;;;6.30;1.88;;;18.40;99.90;;;;;;4132250;28;20721;-90
2022/09/08 02:03:43;;;;;;;5.85;1.70;;;18.40;99.90;;;;;;4148274;28;20185;-91
2022/09/08 02:05:44;;;;;;;8.77;2.20;;;18.40;99.90;;;;;;4131901;28;20169;-90
2022/09/08 02:07:45;;;;;;;10.98;2.10;;;18.40;99.90;;;;;;4131970;28;20565;-91
2022/09/08 02:09:45;;;;;;;7.93;2.20;;;18.40;99.90;;;;;;4148030;28;20179;-91
2022/09/08 02:11:48;;;;;;;8.98;2.17;;;18.40;99.90;;;;;;4131996;28;20174;-92
2022/09/08 02:13:49;;;;;;;8.30;2.08;;;18.60;99.90;;;;;;4131865;28;20200;-91
2022/09/08 02:15:49;;;;;;;3.95;1.80;;;18.50;99.90;;;;;;4148036;28;20165;-91
2022/09/08 02:17:50;;;;;;;7.50;2.15;;;18.50;99.90;;;;;;4147998;28;20526;-91
2022/09/08 02:19:51;;;;;;;5.45;2.00;;;18.40;99.90;;;;;;4131880;28;20285;-92
2022/09/08 02:21:52;;;;;;;6.50;2.10;;;18.30;99.90;;;;;;4148116;28;20188;-91
2022/09/08 02:23:54;;;;;;;5.78;2.47;;;18.30;99.90;;;;;;4131647;28;20174;-92
2022/09/08 02:25:54;;;;;;;7.32;2.35;;;18.30;99.90;;;;;;4131838;28;20174;-90
2022/09/08 02:27:55;;;;;;;8.80;2.30;;;18.10;99.90;;;;;;4148237;28;20212;-91
2022/09/08 02:29:56;;;;;;;6.10;2.10;;;18.10;99.90;;;;;;4131656;28;20181;-91
2022/09/08 02:31:57;;;;;;;4.15;2.20;;;18.20;99.90;;;;;;4148088;28;20672;-91
2022/09/08 02:33:57;;;;;;;9.40;2.83;;;18.20;99.90;;;;;;4131983;28;20170;-92
2022/09/08 02:35:58;;;;;;;8.60;2.72;;;18.30;99.90;;;;;;4147674;28;20172;-91
2022/09/08 02:37:59;;;;;;;7.55;2.60;;;18.30;99.90;;;;;;4131650;28;20570;-94
2022/09/08 02:40:01;;;;;;;8.13;2.35;;;18.30;99.90;;;;;;4148077;28;20255;-93
2022/09/08 02:42:02;;;;;;;10.00;2.67;;;18.30;99.90;;;;;;4131690;28;20170;-92
2022/09/08 02:44:03;;;;;;;8.13;2.35;;;18.20;99.90;;;;;;4147936;28;20235;-93
2022/09/08 02:46:08;;;;;;;9.07;3.15;;;18.30;99.90;;;;;;4150648;28;20204;-92
2022/09/08 02:48:09;;;;;;;10.68;3.20;;;18.30;99.90;;;;;;4135043;28;20166;-91
2022/09/08 02:50:10;;;;;;;8.52;3.17;;;18.30;99.90;;;;;;4134858;28;20561;-91
2022/09/08 02:52:11;;;;;;;12.00;4.05;;;18.30;99.90;;;;;;4134910;28;20197;-91
2022/09/08 02:54:12;;;;;;;8.15;3.30;;;18.30;99.90;;;;;;4134796;28;20166;-92
2022/09/08 02:56:13;;;;;;;13.18;3.25;;;18.30;99.90;;;;;;4134687;28;20205;-93
2022/09/08 02:58:14;;;;;;;8.07;3.10;;;18.20;99.90;;;;;;4151003;28;20171;-92
2022/09/08 03:00:15;;;;;;;9.70;3.20;;;18.20;99.90;;;;;;4150644;28;20217;-91
2022/09/08 03:02:16;;;;;;;10.93;3.15;;;18.40;99.90;;;;;;4134573;28;20256;-91
2022/09/08 03:04:16;;;;;;;10.52;2.97;;;18.30;99.90;;;;;;4134548;28;20181;-93
2022/09/08 03:06:18;;;;;;;5.25;2.38;;;18.20;99.90;;;;;;4150376;28;20173;-92
2022/09/08 03:08:19;;;;;;;7.10;2.38;;;18.30;99.90;;;;;;4134364;28;20666;-92
2022/09/08 03:10:23;;;;;;;6.45;2.60;;;18.30;99.90;;;;;;4134173;28;20221;-92
2022/09/08 03:12:26;;;;;;;10.07;2.63;;;18.20;99.90;;;;;;4134292;28;20268;-92
2022/09/08 03:14:27;;;;;;;5.78;2.22;;;18.20;99.90;;;;;;4150523;28;20176;-92
2022/09/08 03:16:28;;;;;;;8.48;2.97;;;18.10;99.90;;;;;;4150592;28;20653;-91
2022/09/08 03:18:29;;;;;;;7.47;3.05;;;18.20;99.90;;;;;;4134233;28;20169;-92
2022/09/08 03:20:35;;;;;;;8.88;2.70;;;18.20;99.90;;;;;;4134281;28;20261;-91
2022/09/08 03:22:35;;;;;;;6.30;3.05;;;18.10;99.90;;;;;;4138960;28;20626;-92
2022/09/08 03:24:36;;;;;;;8.85;2.60;;;18.10;99.90;;;;;;4154552;28;20185;-91
2022/09/08 03:26:37;;;;;;;5.07;2.35;;;18.00;99.90;;;;;;4150274;28;20185;-91
2022/09/08 03:28:39;;;;;;;8.52;2.80;;;18.10;99.90;;;;;;4134360;28;20197;-91
2022/09/08 03:30:39;;;;;;;10.70;2.80;;;18.10;99.90;;;;;;4134187;28;20224;-92
2022/09/08 03:32:42;;;;;;;5.18;2.58;;;18.10;99.90;;;;;;4134138;28;20181;-91
2022/09/08 03:34:42;;;;;;;8.25;2.35;;;18.10;99.90;;;;;;4134114;28;20174;-91
2022/09/08 03:36:43;;;;;;;10.88;3.22;;;18.00;99.90;;;;;;4133993;28;20216;-91
2022/09/08 03:38:45;;;;;;;7.90;2.90;;;18.10;99.90;;;;;;4133835;28;20166;-90
2022/09/08 03:40:46;;;;;;;8.82;3.03;;;18.00;99.90;;;;;;4133562;28;20217;-90
2022/09/08 03:42:46;;;;;;;7.93;2.70;;;17.90;99.90;;;;;;4134033;28;20237;-92
2022/09/08 03:44:47;;;;;;;8.90;2.83;;;17.70;99.90;;;;;;4133939;28;20178;-93
2022/09/08 03:46:48;;;;;;;8.35;2.90;;;17.70;99.90;;;;;;4133872;28;20177;-89
2022/09/08 03:48:49;;;;;;;6.97;2.90;;;17.70;99.90;;;;;;4133967;28;20177;-91
2022/09/08 03:50:51;;;;;;;8.15;3.40;;;17.70;99.90;;;;;;4133815;28;20200;-91
2022/09/08 03:52:51;;;;;;;8.18;2.92;;;17.70;99.90;;;;;;4133775;28;20181;-92
2022/09/08 03:54:53;;;;;;;7.50;2.70;;;17.60;99.90;;;;;;4149971;28;20199;-92
2022/09/08 03:56:53;;;;;;;6.35;2.60;;;17.50;99.90;;;;;;4132740;28;20657;-91
2022/09/08 03:58:54;;;;;;;8.23;3.17;;;17.60;99.90;;;;;;4149925;28;20226;-92
2022/09/08 04:00:55;;;;;;;10.63;3.15;;;17.50;99.90;;;;;;4133717;28;20197;-91
2022/09/08 04:02:55;;;;;;;11.73;3.45;;;17.30;99.90;;;;;;4149919;28;20621;-91
2022/09/08 04:04:57;;;;;;;9.80;3.22;;;17.30;99.90;;;;;;4133430;28;20177;-91
2022/09/08 04:06:58;;;;;;;9.32;3.08;;;17.30;99.90;;;;;;4133580;28;20264;-91
2022/09/08 04:08:58;;;;;;;13.13;3.42;;;17.10;99.90;;;;;;4149748;28;20181;-90
2022/09/08 04:11:00;;;;;;;10.27;3.50;;;17.10;99.90;;;;;;4133324;28;20193;-91
2022/09/08 04:13:00;;;;;;;9.35;3.58;;;17.00;99.90;;;;;;4149725;28;20185;-91
2022/09/08 04:15:01;;;;;;;10.60;3.92;;;17.00;99.90;;;;;;4133303;28;20166;-92
2022/09/08 04:17:02;;;;;;;8.65;3.78;;;17.00;99.90;;;;;;4133095;28;20177;-90
2022/09/08 04:19:03;;;;;;;12.43;3.83;;;17.00;99.90;;;;;;4149382;28;20585;-91
2022/09/08 04:21:05;;;;;;;12.35;4.30;;;17.00;99.90;;;;;;4133223;28;20224;-91
2022/09/08 04:23:06;;;;;;;6.45;3.13;;;17.00;99.90;;;;;;4133283;28;20204;-89
2022/09/08 04:25:07;;;;;;;10.68;3.97;;;16.90;99.90;;;;;;4149373;28;20593;-92
2022/09/08 04:27:08;;;;;;;9.57;3.42;;;16.90;99.90;;;;;;4133205;28;20296;-90
2022/09/08 04:29:09;;;;;;;11.63;3.78;;;16.90;99.90;;;;;;4133191;28;20173;-90
2022/09/08 04:31:13;;;;;;;8.65;3.90;;;16.90;99.90;;;;;;4133063;28;20204;-91
2022/09/08 04:33:13;;;;;;;8.52;3.60;;;16.80;99.90;;;;;;4133216;28;20248;-91
2022/09/08 04:35:14;;;;;;;8.88;3.72;;;16.80;99.90;;;;;;4133004;28;20200;-90
2022/09/08 04:37:15;;;;;;;11.07;4.30;;;16.80;99.90;;;;;;4133085;28;20224;-91
2022/09/08 04:39:16;;;;;;;10.43;4.10;;;16.70;99.90;;;;;;4132929;28;20264;-91
2022/09/08 04:41:17;;;;;;;8.02;3.75;;;16.80;99.90;;;;;;4132903;28;20229;-90
2022/09/08 04:43:18;;;;;;;9.27;4.18;;;16.80;99.90;;;;;;4133105;28;20166;-90
2022/09/08 04:45:19;;;;;;;10.90;3.58;;;16.70;99.90;;;;;;4149556;28;20652;-90
2022/09/08 04:47:20;;;;;;;11.00;3.70;;;16.80;99.90;;;;;;4132973;28;20170;-91
2022/09/08 04:49:21;;;;;;;9.35;4.35;;;16.60;99.90;;;;;;4149068;28;20635;-90
2022/09/08 04:51:22;;;;;;;14.07;4.22;;;16.70;99.90;;;;;;4149007;28;20193;-92
2022/09/08 04:53:24;;;;;;;13.30;4.10;;;16.60;99.90;;;;;;4132925;28;20287;-91
2022/09/08 04:55:25;;;;;;;11.27;3.83;;;16.60;99.90;;;;;;4132788;28;20276;-91
2022/09/08 04:57:27;;;;;;;10.23;3.58;;;16.60;99.90;;;;;;4148973;28;20208;-90
2022/09/08 04:59:28;;;;;;;9.65;3.47;;;16.50;99.90;;;;;;4132672;28;20217;-91
2022/09/08 05:01:35;;;;;;;6.55;3.33;;;16.40;99.90;;;;;;4148805;28;20193;-90
2022/09/08 05:03:37;;;;;;;9.55;3.60;;;16.40;99.90;;;;;;4132573;28;20184;-92
2022/09/08 05:05:38;;;;;;;7.30;3.20;;;16.40;99.90;;;;;;4132743;28;20170;-91
2022/09/08 05:07:39;;;;;;;10.50;3.53;;;16.50;99.90;;;;;;4132434;28;20177;-90
2022/09/08 05:09:40;;;;;;;11.70;3.70;;;16.50;99.90;;;;;;4148790;28;20209;-91
2022/09/08 05:11:40;;;;;;;8.13;3.58;;;16.50;99.90;;;;;;4132481;28;20202;-91
2022/09/08 05:13:41;;;;;;;7.40;3.50;;;16.40;99.90;;;;;;4148619;28;20508;-90
2022/09/08 05:15:42;;;;;;;8.35;4.03;;;16.40;99.90;;;;;;4132486;28;20333;-91
2022/09/08 05:17:43;;;;;;;8.90;3.97;;;16.30;99.90;;;;;;4148793;28;20252;-88
2022/09/08 05:19:44;;;;;;;8.10;3.80;;;16.30;99.90;;;;;;4132401;28;20217;-91
2022/09/08 05:21:44;;;;;;;8.95;3.75;;;16.30;99.90;;;;;;4148863;28;20256;-91
2022/09/08 05:23:49;;;;;;;8.40;3.75;;;16.40;99.90;;;;;;4132495;28;20177;-91
2022/09/08 05:26:01;;;;;;;6.97;3.55;;;16.40;99.90;;;;;;4132272;28;20668;-92
2022/09/08 05:28:02;;;;;;;7.75;3.97;;;16.40;99.90;;;;;;4132320;28;20165;-91
2022/09/08 05:30:03;;;;;;;11.30;4.38;;;16.50;99.90;;;;;;4148410;28;20213;-92
2022/09/08 05:32:04;;;;;;;14.57;4.30;;;16.50;99.90;;;;;;4132175;28;20212;-92
2022/09/08 05:34:05;;;;;;;8.48;3.90;;;16.60;99.90;;;;;;4132291;28;20256;-92
2022/09/08 05:36:11;;;;;;;10.23;4.10;;;16.50;99.90;;;;;;4132213;28;20173;-89
2022/09/08 05:38:12;;;;;;;9.65;3.92;;;16.50;99.90;;;;;;4132286;28;20650;-90
2022/09/08 05:40:12;;;;;;;10.35;3.78;;;16.60;99.90;;;;;;4148485;28;20220;-89
2022/09/08 05:42:13;;;;;;;9.85;4.18;;;16.60;99.90;;;;;;4132227;28;20180;-91
2022/09/08 05:44:14;;;;;;;11.82;5.00;;;16.60;99.90;;;;;;4148593;28;20169;-90
2022/09/08 05:46:15;;;;;;;11.55;4.20;;;16.60;99.90;;;;;;4132485;28;20174;-92
2022/09/08 05:48:16;;;;;;;8.07;4.00;;;16.70;99.90;;;;;;4148415;28;20196;-91
2022/09/08 05:50:17;;;;;;;8.15;3.83;;;16.70;99.90;;;;;;4131924;28;20229;-90
2022/09/08 05:52:18;;;;;;;13.15;3.95;;;16.90;99.90;;;;;;4132001;28;20178;-90
2022/09/08 05:54:21;;;;;;;8.32;3.95;;;17.00;99.90;;;;;;4131949;28;20173;-91
2022/09/08 05:56:22;;;;;;;8.88;3.78;;;17.00;99.90;;;;;;4148231;28;20184;-90
2022/09/08 05:58:23;;;;;;;11.15;3.90;;;17.00;99.90;;;;;;4148273;28;20291;-90
2022/09/08 06:00:24;;;;;;;6.85;3.40;;;17.00;99.90;;;;;;4131818;28;20225;-90
2022/09/08 06:02:24;;;;;;;8.73;3.83;;;17.10;99.90;;;;;;4148255;28;20187;-91
2022/09/08 06:04:25;;;;;;;8.77;4.07;;;17.00;99.90;;;;;;4132071;28;20252;-90
2022/09/08 06:06:27;;;;;;;10.35;3.70;;;17.00;99.90;;;;;;4148208;28;20173;-90
2022/09/08 06:08:28;;;;;;;8.32;4.20;;;17.00;99.90;;;;;;4132003;28;20174;-90
2022/09/08 06:10:28;;;;;;;8.95;3.63;;;17.00;99.90;;;;;;4148015;28;20251;-90
2022/09/08 06:12:29;;;;;;;9.48;3.65;;;17.10;99.90;;;;;;4132085;28;20173;-91
2022/09/08 06:14:30;;;;;;;5.80;3.63;;;17.00;99.90;;;;;;4157376;28;20218;-89
2022/09/08 06:16:31;;;;;;;6.50;3.78;;;17.10;99.90;;;;;;4140321;28;20666;-89
2022/09/08 06:18:36;;;;;;;6.43;3.50;;;17.10;99.90;;;;;;4132376;28;20162;-92
2022/09/08 06:20:37;;;;;;;10.23;3.72;;;17.10;99.90;;;;;;4150275;28;20216;-91
2022/09/08 06:22:38;;;;;;;10.15;4.00;;;17.20;99.90;;;;;;4135316;28;20649;-91
2022/09/08 06:24:38;;;;;;;10.45;3.97;;;17.30;99.90;;;;;;4135575;28;20185;-91
2022/09/08 06:26:55;;;;;;;10.07;4.20;;;17.50;99.90;;;;;;4151503;28;20193;-91
2022/09/08 06:29:05;;;;;;;6.00;3.20;;;17.70;99.90;;;;;;4135094;28;20247;-92
2022/09/08 06:31:07;;;;;;;10.80;3.60;;;17.70;99.90;;;;;;4134971;28;20201;-91
2022/09/08 06:33:12;;;;;;;8.10;3.40;;;17.90;99.90;;;;;;4151152;28;20200;-91
2022/09/08 06:35:13;;;;;;;10.18;3.50;;;17.90;99.90;;;;;;4134906;28;20174;-91
2022/09/08 06:37:35;;;;;;;6.05;2.95;;;17.90;99.90;;;;;;4151214;28;20203;-91
2022/09/08 06:39:48;;;;;;;8.88;3.28;;;17.90;99.90;;;;;;4135222;28;20257;-90
2022/09/08 06:42:03;;;;;;;10.45;3.10;;;18.10;99.90;;;;;;4134943;28;20185;-92
2022/09/08 06:44:16;;;;;;;7.82;2.90;;;18.20;99.90;;;;;;4135435;28;20177;-90
2022/09/08 06:46:23;;;;;;;7.47;3.20;;;18.40;99.90;;;;;;4135014;28;20181;-91
2022/09/08 06:48:27;;;;;;;9.23;3.28;;;18.30;99.90;;;;;;4134847;28;20212;-91
2022/09/08 06:50:28;;;;;;;10.45;2.85;;;18.60;99.90;;;;;;4134690;28;20301;-91
2022/09/08 06:52:45;;;;;;;5.82;2.70;;;18.80;99.90;;;;;;4135013;28;20173;-91
2022/09/08 06:55:02;;;;;;;10.88;3.55;;;18.90;99.90;;;;;;4134499;28;20225;-91
2022/09/08 06:57:24;;;;;;;10.18;3.00;;;19.00;99.90;;;;;;4134444;28;20304;-90
2022/09/08 06:59:40;;;;;;;6.13;2.35;;;18.80;99.90;;;;;;4134512;28;20205;-91
2022/09/08 07:02:01;;;;;;;11.80;3.00;;;18.70;99.90;;;;;;4134629;28;20237;-91
2022/09/08 07:04:40;;;;;;;14.75;2.85;;;18.80;99.90;;;;;;4134479;28;20200;-90
2022/09/08 07:06:55;;;;;;;12.07;2.50;;;18.80;99.90;;;;;;4118055;28;20190;-90
2022/09/08 07:09:33;;;;;;;7.07;1.95;;;19.00;99.90;;;;;;4133996;28;20169;-91
2022/09/08 07:11:48;;;;;;;11.48;1.85;;;19.50;99.90;;;;;;4133674;28;20205;-89
2022/09/08 07:14:04;;;;;;;7.45;1.80;;;20.50;99.90;;;;;;4134341;28;20189;-90
2022/09/08 07:16:26;;;;;;;6.38;1.75;;;21.70;99.90;;;;;;4134156;28;20736;-91
2022/09/08 07:18:33;;;;;;;6.88;2.10;;;22.50;99.90;;;;;;4150315;28;20204;-91
2022/09/08 07:20:33;;;;;;;9.90;2.00;;;23.10;99.90;;;;;;4134245;28;20217;-91
2022/09/08 07:22:37;;;;;;;7.90;1.95;;;23.40;99.90;;;;;;4150452;28;20215;-90
2022/09/08 07:24:41;;;;;;;6.78;1.90;;;23.50;99.90;;;;;;4134325;28;20188;-92
2022/09/08 07:26:55;;;;;;;7.63;1.50;;;23.30;99.90;;;;;;4134103;28;20162;-92
2022/09/08 07:29:05;;;;;;;8.88;1.42;;;23.30;99.90;;;;;;4134128;28;20185;-93
2022/09/08 07:31:15;;;;;;;5.22;1.90;;;23.00;99.90;;;;;;4133059;28;20197;-92
2022/09/08 07:33:24;;;;;;;9.07;1.80;;;22.30;99.90;;;;;;4134010;28;20169;-90
2022/09/08 07:35:49;;;;;;;6.55;1.33;;;21.70;99.90;;;;;;4134273;28;20177;-91
2022/09/08 07:37:53;;;;;;;5.88;1.50;;;21.30;99.90;;;;;;4134071;28;20193;-91
2022/09/08 07:40:03;;;;;;;6.88;1.42;;;21.10;99.90;;;;;;4133852;28;20209;-91
2022/09/08 07:42:10;;;;;;;7.30;1.40;;;20.70;99.90;;;;;;4133994;28;20297;-91
2022/09/08 07:44:16;;;;;;;7.95;1.52;;;20.50;99.90;;;;;;4133948;28;20216;-91
2022/09/08 07:46:43;;;;;;;6.00;1.25;;;20.40;99.90;;;;;;4133844;28;20201;-89
2022/09/08 07:49:14;;;;;;;5.95;1.50;;;20.20;99.90;;;;;;4133667;28;20246;-90
2022/09/08 07:51:19;;;;;;;8.98;1.45;;;19.80;99.90;;;;;;4133377;28;20267;-89
2022/09/08 07:53:51;;;;;;;9.43;1.40;;;19.90;99.90;;;;;;4133817;28;20239;-91
2022/09/08 07:55:55;;;;;;;7.53;1.35;;;19.60;99.90;;;;;;4143122;28;20184;-92
2022/09/08 07:58:18;;;;;;;4.05;1.10;;;19.60;99.90;;;;;;4133809;28;20173;-91
2022/09/08 08:00:30;;;;;;;9.23;1.30;;;20.10;99.90;;;;;;4133472;28;20225;-91
2022/09/08 08:03:11;;;;;;;7.95;1.25;;;21.00;99.90;;;;;;4133518;28;20208;-90
2022/09/08 08:05:21;;;;;;;4.82;1.23;;;21.80;99.90;;;;;;4133456;28;20177;-90
2022/09/08 08:07:56;;;;;;;5.00;1.05;;;22.40;99.90;;;;;;4133580;28;20173;-89
2022/09/08 08:10:19;;;;;;;6.68;1.60;;;23.10;99.90;;;;;;4116922;28;20189;-90
2022/09/08 08:13:08;;;;;;;7.57;1.40;;;23.40;99.90;;;;;;4133592;28;20193;-90
2022/09/08 08:15:18;;;;;;;4.95;1.02;;;24.20;99.90;;;;;;4132983;28;20224;-89
2022/09/08 08:17:24;;;;;;;5.93;1.23;;;24.50;99.90;;;;;;4133545;28;20180;-90
2022/09/08 08:19:53;;;;;;;5.22;1.05;;;25.00;99.90;;;;;;4133383;28;20209;-91
2022/09/08 08:22:23;;;;;;;6.47;1.13;;;24.40;99.90;;;;;;4124650;28;20195;-91
2022/09/08 08:25:04;;;;;;;9.80;1.40;;;24.50;99.90;;;;;;4133304;28;20236;-88
2022/09/08 08:27:27;;;;;;;7.97;1.00;;;24.20;99.90;;;;;;4133320;28;20276;-91
2022/09/08 08:30:07;;;;;;;8.30;1.00;;;25.00;99.90;;;;;;4133418;28;20553;-90
2022/09/08 08:32:16;;;;;;;3.75;0.80;;;25.20;99.90;;;;;;4133179;28;20277;-89
2022/09/08 08:34:47;;;;;;;5.25;0.80;;;24.50;99.90;;;;;;4133225;28;20189;-90
2022/09/08 08:36:50;;;;;;;2.92;0.80;;;24.00;99.90;;;;;;4132833;28;20221;-90
2022/09/08 08:39:15;;;;;;;7.13;0.88;;;23.20;99.90;;;;;;4133175;28;20529;-92
2022/09/08 08:41:46;;;;;;;5.80;0.70;;;22.90;99.90;;;;;;4132839;28;20201;-90
2022/09/08 08:43:58;;;;;;;4.47;0.77;;;23.20;99.90;;;;;;4132729;28;20184;-90
2022/09/08 08:46:30;;;;;;;3.58;0.85;;;23.90;99.90;;;;;;4132992;28;20170;-91
2022/09/08 08:48:53;;;;;;;8.65;1.02;;;24.20;99.90;;;;;;4132927;28;20177;-91
2022/09/08 08:51:08;;;;;;;3.78;0.73;;;24.50;99.90;;;;;;4149016;28;20197;-91
2022/09/08 08:53:17;;;;;;;5.57;1.15;;;23.50;99.90;;;;;;4132836;28;20216;-91
2022/09/08 08:55:58;;;;;;;8.07;0.80;;;22.90;99.90;;;;;;4132975;28;20192;-90
2022/09/08 08:58:18;;;;;;;7.28;0.90;;;22.70;99.90;;;;;;4116687;28;20639;-91
2022/09/08 09:00:28;;;;;;;7.20;0.98;;;22.40;99.90;;;;;;4132442;28;20229;-91
2022/09/08 09:02:36;;;;;;;8.30;0.70;;;22.70;99.90;;;;;;4132850;28;20188;-91
2022/09/08 09:04:44;;;;;;;5.70;0.90;;;23.50;99.90;;;;;;4132582;28;20228;-89
2022/09/08 09:06:56;;;;;;;5.82;0.70;;;23.60;99.90;;;;;;4132627;28;20204;-91
2022/09/08 09:09:41;;;;;;;4.13;0.60;;;23.50;99.90;;;;;;4132611;28;20185;-90
2022/09/08 09:11:41;;;;;;;6.30;1.02;;;23.50;99.90;;;;;;4132352;28;20677;-89
2022/09/08 09:13:47;;;;;;;7.35;1.17;;;23.60;99.90;;;;;;4132807;28;20205;-92
2022/09/08 09:16:10;;;;;;;3.85;0.80;;;23.80;99.90;;;;;;4132979;28;20195;-90
2022/09/08 09:19:00;;;;;;;7.47;0.82;;;23.60;99.90;;;;;;4132640;28;20670;-92
2022/09/08 09:21:39;;;;;;;5.63;0.90;;;23.50;99.90;;;;;;4102853;28;20383;-91
2022/09/08 09:23:59;;;;;;;4.30;0.90;;;23.30;99.90;;;;;;4121817;28;20228;-90
2022/09/08 09:26:14;;;;;;;4.32;0.60;;;23.60;99.90;;;;;;4132006;28;20204;-90
2022/09/08 09:28:29;;;;;;;4.72;0.93;;;23.20;99.90;;;;;;4132440;28;20185;-92
2022/09/08 09:30:54;;;;;;;5.68;1.10;;;22.90;99.90;;;;;;4132414;28;20308;-89
2022/09/08 09:33:23;;;;;;;5.13;1.00;;;22.90;99.90;;;;;;4148673;28;20579;-91
2022/09/08 09:35:32;;;;;;;6.03;0.90;;;22.70;99.90;;;;;;4132361;28;20189;-90
2022/09/08 09:38:17;;;;;;;5.18;1.05;;;22.60;99.90;;;;;;4132353;28;20188;-92
2022/09/08 09:40:42;;;;;;;5.93;0.80;;;22.00;99.90;;;;;;4126762;28;20323;-91
2022/09/08 09:42:51;;;;;;;3.88;0.90;;;21.50;99.90;;;;;;4132313;28;20684;-89
2022/09/08 09:44:57;;;;;;;8.02;1.10;;;21.10;99.90;;;;;;4132316;28;20173;-90
2022/09/08 09:47:17;;;;;;;7.03;1.20;;;21.10;99.90;;;;;;4132372;28;20178;-91
2022/09/08 09:49:39;;;;;;;11.93;1.30;;;21.60;99.90;;;;;;4132448;28;20189;-92
2022/09/08 09:51:58;;;;;;;13.00;1.10;;;22.00;99.90;;;;;;4143072;28;20193;-90
2022/09/08 09:54:18;;;;;;;12.27;1.30;;;22.60;99.90;;;;;;4144282;28;20188;-89
2022/09/08 09:56:36;;;;;;;9.88;1.40;;;22.90;99.90;;;;;;4132297;28;20186;-92
2022/09/08 09:59:02;;;;;;;4.95;1.00;;;23.20;99.90;;;;;;4132286;28;20236;-91
2022/09/08 10:01:20;;;;;;;8.13;1.08;;;23.50;99.90;;;;;;4132247;28;20589;-91
2022/09/08 10:03:42;;;;;;;6.38;1.13;;;23.50;99.90;;;;;;4132114;28;20188;-91
2022/09/08 10:05:49;;;;;;;5.75;1.05;;;23.80;99.90;;;;;;4132600;28;20247;-92
2022/09/08 10:08:22;;;;;;;8.40;1.25;;;23.60;99.90;;;;;;4132471;28;20216;-89
2022/09/08 10:10:22;;;;;;;7.55;1.15;;;23.60;99.90;;;;;;4131955;28;20201;-91
2022/09/08 10:12:55;;;;;;;10.80;1.40;;;23.60;99.90;;;;;;4132220;28;20169;-90
2022/09/08 10:15:07;;;;;;;6.47;1.27;;;23.80;99.90;;;;;;4131918;28;20189;-92
2022/09/08 10:17:23;;;;;;;9.57;1.40;;;23.90;99.90;;;;;;4132042;28;20700;-91
2022/09/08 10:19:29;;;;;;;7.25;1.63;;;24.00;99.90;;;;;;4131906;28;20263;-91
2022/09/08 10:21:51;;;;;;;8.27;1.33;;;23.90;99.90;;;;;;4131799;28;20193;-90
2022/09/08 10:24:07;;;;;;;9.60;1.58;;;23.50;99.90;;;;;;4131973;28;20229;-89
2022/09/08 10:26:44;;;;;;;6.20;1.52;;;23.00;99.90;;;;;;4131892;28;20181;-89
2022/09/08 10:29:22;;;;;;;7.43;2.30;;;22.70;99.90;;;;;;4131912;28;20232;-90
2022/09/08 10:31:45;;;;;;;6.95;1.60;;;22.40;99.90;;;;;;4131926;28;20606;-89
2022/09/08 10:34:10;;;;;;;6.90;1.42;;;22.40;99.90;;;;;;4131975;28;20172;-91
2022/09/08 10:36:11;;;;;;;8.80;1.20;;;22.50;99.90;;;;;;4131518;28;20190;-91
2022/09/08 10:38:48;;;;;;;9.38;1.50;;;22.70;99.90;;;;;;4131498;28;20224;-90
2022/09/08 10:40:54;;;;;;;6.82;1.50;;;23.00;99.90;;;;;;4131405;28;20697;-89
2022/09/08 10:43:32;;;;;;;7.70;1.52;;;23.20;99.90;;;;;;4131747;28;20177;-90
2022/09/08 10:45:33;;;;;;;7.57;1.52;;;23.20;99.90;;;;;;4131625;28;20178;-91
2022/09/08 10:48:02;;;;;;;13.70;1.65;;;22.90;99.90;;;;;;4131586;28;20174;-91
2022/09/08 10:50:19;;;;;;;9.77;1.48;;;22.90;99.90;;;;;;4131572;28;20572;-90
2022/09/08 10:52:48;;;;;;;12.35;1.23;;;23.20;99.90;;;;;;4131605;28;20181;-91
2022/09/08 10:55:10;;;;;;;6.90;1.08;;;23.20;99.90;;;;;;4131467;28;20173;-90
2022/09/08 10:57:44;;;;;;;7.40;1.33;;;23.10;99.90;;;;;;4131720;28;20685;-89
2022/09/08 11:00:02;;;;;;;8.27;1.08;;;23.40;99.90;;;;;;4131643;28;20237;-89
2022/09/08 11:02:27;;;;;;;9.43;1.30;;;23.40;99.90;;;;;;4131970;28;20264;-88
2022/09/08 11:05:22;;;;;;;8.88;1.20;;;23.10;99.90;;;;;;4131818;28;20264;-92
2022/09/08 11:07:35;;;;;;;6.15;1.40;;;23.00;99.90;;;;;;4134671;28;20174;-92
2022/09/08 11:09:41;;;;;;;7.50;1.27;;;23.20;99.90;;;;;;4134607;28;20560;-90
2022/09/08 11:12:20;;;;;;;11.07;1.40;;;23.30;99.90;;;;;;4134437;28;20194;-89
2022/09/08 11:14:43;;;;;;;9.27;1.20;;;23.20;99.90;;;;;;4118154;28;20181;-90
2022/09/08 11:17:18;;;;;;;6.25;1.10;;;22.80;99.90;;;;;;4134462;28;20237;-89